sensor_id;sensor_type;location;lat;lon;timestamp;pressure;altitude;pressure_sealevel;temperature;humidity
56600;BME280;51832;48.152;11.530;2023-03-04T00:00:50;95794.44;;;6.70;67.48
56600;BME280;51832;48.152;11.530;2023-03-04T00:05:50;95803.41;;;6.82;67.49
56600;BME280;51832;48.152;11.530;2023-03-04T00:10:51;95791.44;;;6.73;66.94
56600;BME280;51832;48.152;11.530;2023-03-04T00:15:51;95795.22;;;6.92;66.67
56600;BME280;51832;48.152;11.530;2023-03-04T00:20:52;95802.63;;;6.88;67.07
56600;BME280;51832;48.152;11.530;2023-03-04T00:25:52;95807.38;;;6.57;66.79
56600;BME280;51832;48.152;11.530;2023-03-04T00:30:53;95807.91;;;6.67;66.45
56600;BME280;51832;48.152;11.530;2023-03-04T00:35:53;95801.34;;;6.56;67.26
56600;BME280;51832;48.152;11.530;2023-03-04T00:40:53;95815.81;;;6.52;67.43
56600;BME280;51832;48.152;11.530;2023-03-04T00:45:54;95815.16;;;6.07;68.84
56600;BME280;51832;48.152;11.530;2023-03-04T00:50:55;95812.28;;;6.02;69.22
56600;BME280;51832;48.152;11.530;2023-03-04T00:55:55;95808.53;;;5.76;69.97
56600;BME280;51832;48.152;11.530;2023-03-04T01:00:56;95808.94;;;6.09;68.66
56600;BME280;51832;48.152;11.530;2023-03-04T01:05:56;95803.78;;;5.64;70.50
56600;BME280;51832;48.152;11.530;2023-03-04T01:10:57;95792.13;;;5.46;70.66
56600;BME280;51832;48.152;11.530;2023-03-04T01:15:57;95787.94;;;5.51;70.74
56600;BME280;51832;48.152;11.530;2023-03-04T01:20:58;95786.78;;;5.54;70.00
56600;BME280;51832;48.152;11.530;2023-03-04T01:25:58;95783.53;;;5.66;70.47
56600;BME280;51832;48.152;11.530;2023-03-04T01:30:59;95783.47;;;5.30;70.89
56600;BME280;51832;48.152;11.530;2023-03-04T01:35:59;95775.19;;;5.42;71.56
56600;BME280;51832;48.152;11.530;2023-03-04T01:41:00;95768.56;;;5.60;70.24
56600;BME280;51832;48.152;11.530;2023-03-04T01:46:01;95771.91;;;5.69;69.98
56600;BME280;51832;48.152;11.530;2023-03-04T01:51:03;95766.69;;;5.69;69.74
56600;BME280;51832;48.152;11.530;2023-03-04T01:56:27;95760.97;;;5.59;68.92
56600;BME280;51832;48.152;11.530;2023-03-04T02:01:28;95755.84;;;5.36;70.42
56600;BME280;51832;48.152;11.530;2023-03-04T02:06:28;95752.13;;;5.60;69.68
56600;BME280;51832;48.152;11.530;2023-03-04T02:11:29;95741.16;;;5.50;69.84
56600;BME280;51832;48.152;11.530;2023-03-04T02:16:30;95745.25;;;5.23;70.91
56600;BME280;51832;48.152;11.530;2023-03-04T02:21:32;95729.69;;;5.29;70.36
56600;BME280;51832;48.152;11.530;2023-03-04T02:26:33;95731.94;;;5.18;71.08
56600;BME280;51832;48.152;11.530;2023-03-04T02:31:39;95738.03;;;5.25;71.17
56600;BME280;51832;48.152;11.530;2023-03-04T02:36:40;95729.53;;;5.02;71.82
56600;BME280;51832;48.152;11.530;2023-03-04T02:41:40;95735.25;;;4.97;71.77
56600;BME280;51832;48.152;11.530;2023-03-04T02:46:41;95740.38;;;5.20;71.00
56600;BME280;51832;48.152;11.530;2023-03-04T02:51:41;95740.75;;;5.02;71.47
56600;BME280;51832;48.152;11.530;2023-03-04T02:56:53;95737.59;;;5.21;71.56
56600;BME280;51832;48.152;11.530;2023-03-04T03:01:53;95732.84;;;4.95;72.10
56600;BME280;51832;48.152;11.530;2023-03-04T03:06:54;95729.34;;;5.03;72.08
56600;BME280;51832;48.152;11.530;2023-03-04T03:11:54;95732.56;;;4.76;72.20
56600;BME280;51832;48.152;11.530;2023-03-04T03:16:55;95740.59;;;4.51;73.42
56600;BME280;51832;48.152;11.530;2023-03-04T03:21:55;95735.91;;;4.84;72.46
56600;BME280;51832;48.152;11.530;2023-03-04T03:26:56;95744.13;;;4.58;72.63
56600;BME280;51832;48.152;11.530;2023-03-04T03:31:56;95747.19;;;4.47;73.61
56600;BME280;51832;48.152;11.530;2023-03-04T03:36:56;95732.97;;;4.35;74.11
56600;BME280;51832;48.152;11.530;2023-03-04T03:41:57;95738.97;;;4.36;73.88
56600;BME280;51832;48.152;11.530;2023-03-04T03:46:57;95743.97;;;3.77;75.55
56600;BME280;51832;48.152;11.530;2023-03-04T03:51:58;95735.16;;;4.61;73.04
56600;BME280;51832;48.152;11.530;2023-03-04T03:56:58;95728.69;;;4.72;71.90
56600;BME280;51832;48.152;11.530;2023-03-04T04:01:59;95735.22;;;4.15;73.73
56600;BME280;51832;48.152;11.530;2023-03-04T04:06:59;95728.72;;;4.11;73.82
56600;BME280;51832;48.152;11.530;2023-03-04T04:11:59;95726.09;;;4.19;73.81
56600;BME280;51832;48.152;11.530;2023-03-04T04:17:00;95720.41;;;4.53;72.02
56600;BME280;51832;48.152;11.530;2023-03-04T04:22:01;95727.94;;;4.48;71.73
56600;BME280;51832;48.152;11.530;2023-03-04T04:27:01;95729.47;;;4.57;71.22
56600;BME280;51832;48.152;11.530;2023-03-04T04:32:03;95733.53;;;4.60;71.45
56600;BME280;51832;48.152;11.530;2023-03-04T04:37:04;95736.28;;;4.06;72.50
56600;BME280;51832;48.152;11.530;2023-03-04T04:42:04;95729.16;;;4.23;72.31
56600;BME280;51832;48.152;11.530;2023-03-04T04:47:05;95733.38;;;4.39;71.41
56600;BME280;51832;48.152;11.530;2023-03-04T04:52:06;95730.63;;;4.40;71.63
56600;BME280;51832;48.152;11.530;2023-03-04T04:57:06;95731.81;;;4.52;71.07
56600;BME280;51832;48.152;11.530;2023-03-04T05:02:07;95734.41;;;4.15;71.49
56600;BME280;51832;48.152;11.530;2023-03-04T05:07:07;95733.34;;;4.09;71.85
56600;BME280;51832;48.152;11.530;2023-03-04T05:12:08;95739.59;;;4.38;71.11
56600;BME280;51832;48.152;11.530;2023-03-04T05:17:08;95735.38;;;4.14;72.15
56600;BME280;51832;48.152;11.530;2023-03-04T05:22:08;95737.66;;;4.17;71.82
56600;BME280;51832;48.152;11.530;2023-03-04T05:27:09;95732.34;;;4.48;70.67
56600;BME280;51832;48.152;11.530;2023-03-04T05:32:09;95739.44;;;4.16;71.51
56600;BME280;51832;48.152;11.530;2023-03-04T05:37:10;95739.69;;;4.07;72.25
56600;BME280;51832;48.152;11.530;2023-03-04T05:42:10;95742.41;;;4.13;72.43
56600;BME280;51832;48.152;11.530;2023-03-04T05:47:10;95742.50;;;3.74;73.85
56600;BME280;51832;48.152;11.530;2023-03-04T05:52:11;95749.16;;;4.00;73.25
56600;BME280;51832;48.152;11.530;2023-03-04T05:57:11;95738.13;;;3.75;73.83
56600;BME280;51832;48.152;11.530;2023-03-04T06:02:12;95752.25;;;4.03;72.48
56600;BME280;51832;48.152;11.530;2023-03-04T06:07:12;95755.06;;;3.40;74.90
56600;BME280;51832;48.152;11.530;2023-03-04T06:12:12;95765.84;;;3.90;73.11
56600;BME280;51832;48.152;11.530;2023-03-04T06:17:13;95764.28;;;4.04;72.20
56600;BME280;51832;48.152;11.530;2023-03-04T06:22:13;95765.03;;;3.59;74.00
56600;BME280;51832;48.152;11.530;2023-03-04T06:27:14;95769.72;;;3.64;74.20
56600;BME280;51832;48.152;11.530;2023-03-04T06:32:15;95770.41;;;4.34;72.01
56600;BME280;51832;48.152;11.530;2023-03-04T06:37:16;95779.78;;;3.98;72.40
56600;BME280;51832;48.152;11.530;2023-03-04T06:42:16;95787.00;;;4.10;71.53
56600;BME280;51832;48.152;11.530;2023-03-04T06:47:17;95781.69;;;4.49;70.27
56600;BME280;51832;48.152;11.530;2023-03-04T06:52:18;95782.63;;;4.34;70.85
56600;BME280;51832;48.152;11.530;2023-03-04T06:57:18;95795.22;;;4.45;70.04
56600;BME280;51832;48.152;11.530;2023-03-04T07:02:18;95784.78;;;4.82;69.52
56600;BME280;51832;48.152;11.530;2023-03-04T07:07:19;95795.13;;;4.76;70.44
56600;BME280;51832;48.152;11.530;2023-03-04T07:12:19;95791.09;;;4.88;70.05
56600;BME280;51832;48.152;11.530;2023-03-04T07:17:20;95789.97;;;5.05;69.18
56600;BME280;51832;48.152;11.530;2023-03-04T07:22:20;95795.97;;;4.53;70.79
56600;BME280;51832;48.152;11.530;2023-03-04T07:27:21;95794.53;;;5.03;69.11
56600;BME280;51832;48.152;11.530;2023-03-04T07:32:21;95807.78;;;4.79;69.82
56600;BME280;51832;48.152;11.530;2023-03-04T07:37:21;95812.19;;;5.16;68.55
56600;BME280;51832;48.152;11.530;2023-03-04T07:42:22;95814.88;;;5.37;67.79
56600;BME280;51832;48.152;11.530;2023-03-04T07:47:22;95818.47;;;5.51;67.47
56600;BME280;51832;48.152;11.530;2023-03-04T07:52:23;95829.25;;;5.62;67.55
56600;BME280;51832;48.152;11.530;2023-03-04T07:57:23;95837.25;;;5.02;68.78
56600;BME280;51832;48.152;11.530;2023-03-04T08:02:24;95841.22;;;5.13;68.78
56600;BME280;51832;48.152;11.530;2023-03-04T08:07:24;95843.31;;;5.32;68.02
56600;BME280;51832;48.152;11.530;2023-03-04T08:12:25;95841.47;;;5.03;69.48
56600;BME280;51832;48.152;11.530;2023-03-04T08:17:25;95853.69;;;4.65;70.44
56600;BME280;51832;48.152;11.530;2023-03-04T08:22:28;95848.69;;;5.16;68.74
56600;BME280;51832;48.152;11.530;2023-03-04T08:27:29;95843.13;;;5.19;68.34
56600;BME280;51832;48.152;11.530;2023-03-04T08:32:29;95838.06;;;5.47;66.96
56600;BME280;51832;48.152;11.530;2023-03-04T08:37:29;95834.22;;;5.13;67.96
56600;BME280;51832;48.152;11.530;2023-03-04T08:42:30;95841.31;;;5.93;65.21
56600;BME280;51832;48.152;11.530;2023-03-04T08:47:30;95837.28;;;5.46;66.27
56600;BME280;51832;48.152;11.530;2023-03-04T08:52:31;95834.78;;;6.03;64.30
56600;BME280;51832;48.152;11.530;2023-03-04T08:57:31;95844.38;;;5.96;64.25
56600;BME280;51832;48.152;11.530;2023-03-04T09:02:32;95843.63;;;6.60;62.58
56600;BME280;51832;48.152;11.530;2023-03-04T09:07:32;95837.84;;;6.64;61.16
56600;BME280;51832;48.152;11.530;2023-03-04T09:12:32;95840.69;;;6.48;61.69
56600;BME280;51832;48.152;11.530;2023-03-04T09:17:33;95835.28;;;6.71;61.58
56600;BME280;51832;48.152;11.530;2023-03-04T09:22:33;95829.31;;;7.05;58.81
56600;BME280;51832;48.152;11.530;2023-03-04T09:27:34;95818.97;;;7.59;57.75
56600;BME280;51832;48.152;11.530;2023-03-04T09:32:35;95822.66;;;7.71;57.77
56600;BME280;51832;48.152;11.530;2023-03-04T09:37:35;95826.28;;;7.70;57.54
56600;BME280;51832;48.152;11.530;2023-03-04T09:43:03;95828.44;;;8.01;56.00
56600;BME280;51832;48.152;11.530;2023-03-04T09:48:03;95834.00;;;7.78;57.17
56600;BME280;51832;48.152;11.530;2023-03-04T09:53:19;95831.19;;;8.41;55.83
56600;BME280;51832;48.152;11.530;2023-03-04T09:58:31;95820.75;;;8.61;55.15
56600;BME280;51832;48.152;11.530;2023-03-04T10:09:00;95813.38;;;8.16;54.98
56600;BME280;51832;48.152;11.530;2023-03-04T10:24:27;95796.41;;;8.12;55.54
56600;BME280;51832;48.152;11.530;2023-03-04T10:29:29;95803.13;;;7.74;55.09
56600;BME280;51832;48.152;11.530;2023-03-04T10:34:31;95791.53;;;7.96;54.03
56600;BME280;51832;48.152;11.530;2023-03-04T10:39:35;95791.78;;;8.14;53.42
56600;BME280;51832;48.152;11.530;2023-03-04T10:44:41;95780.19;;;8.76;51.86
56600;BME280;51832;48.152;11.530;2023-03-04T10:49:53;95781.09;;;8.23;52.61
56600;BME280;51832;48.152;11.530;2023-03-04T10:54:59;95783.78;;;8.36;53.24
56600;BME280;51832;48.152;11.530;2023-03-04T11:00:35;95779.06;;;8.05;53.48
56600;BME280;51832;48.152;11.530;2023-03-04T11:05:36;95779.81;;;8.60;52.52
56600;BME280;51832;48.152;11.530;2023-03-04T11:10:40;95778.97;;;8.66;51.31
56600;BME280;51832;48.152;11.530;2023-03-04T11:16:03;95778.34;;;8.37;52.76
56600;BME280;51832;48.152;11.530;2023-03-04T11:21:05;95774.34;;;8.74;51.72
56600;BME280;51832;48.152;11.530;2023-03-04T11:31:41;95772.75;;;8.73;52.07
56600;BME280;51832;48.152;11.530;2023-03-04T11:41:59;95756.34;;;9.75;50.07
56600;BME280;51832;48.152;11.530;2023-03-04T11:47:25;95755.22;;;9.51;49.19
56600;BME280;51832;48.152;11.530;2023-03-04T11:58:08;95739.69;;;9.43;49.76
56600;BME280;51832;48.152;11.530;2023-03-04T12:19:05;95713.19;;;10.34;47.09
56600;BME280;51832;48.152;11.530;2023-03-04T12:24:31;95709.56;;;11.03;45.65
56600;BME280;51832;48.152;11.530;2023-03-04T12:45:27;95683.66;;;11.55;44.45
56600;BME280;51832;48.152;11.530;2023-03-04T12:56:42;95687.44;;;11.59;43.84
56600;BME280;51832;48.152;11.530;2023-03-04T13:07:06;95670.69;;;12.90;41.09
56600;BME280;51832;48.152;11.530;2023-03-04T13:12:18;95668.16;;;13.06;40.77
56600;BME280;51832;48.152;11.530;2023-03-04T13:17:52;95666.31;;;12.60;41.76
56600;BME280;51832;48.152;11.530;2023-03-04T13:23:03;95660.59;;;12.98;40.65
56600;BME280;51832;48.152;11.530;2023-03-04T13:28:39;95654.88;;;13.41;39.13
56600;BME280;51832;48.152;11.530;2023-03-04T13:33:46;95662.75;;;12.55;41.13
56600;BME280;51832;48.152;11.530;2023-03-04T13:38:57;95650.13;;;13.15;40.19
56600;BME280;51832;48.152;11.530;2023-03-04T13:44:00;95648.78;;;13.41;39.87
56600;BME280;51832;48.152;11.530;2023-03-04T13:49:03;95646.44;;;13.04;40.63
56600;BME280;51832;48.152;11.530;2023-03-04T13:54:11;95640.38;;;12.69;41.01
56600;BME280;51832;48.152;11.530;2023-03-04T13:59:20;95648.88;;;12.71;41.41
56600;BME280;51832;48.152;11.530;2023-03-04T14:19:55;95634.75;;;12.65;40.55
56600;BME280;51832;48.152;11.530;2023-03-04T14:30:25;95621.72;;;13.62;38.45
56600;BME280;51832;48.152;11.530;2023-03-04T14:35:28;95623.63;;;13.50;38.73
56600;BME280;51832;48.152;11.530;2023-03-04T14:40:34;95617.50;;;14.73;36.08
56600;BME280;51832;48.152;11.530;2023-03-04T14:45:38;95626.13;;;15.02;34.23
56600;BME280;51832;48.152;11.530;2023-03-04T14:50:47;95621.25;;;15.81;32.25
56600;BME280;51832;48.152;11.530;2023-03-04T14:56:02;95630.84;;;15.60;32.04
56600;BME280;51832;48.152;11.530;2023-03-04T15:01:16;95628.66;;;16.06;31.23
56600;BME280;51832;48.152;11.530;2023-03-04T15:06:20;95628.41;;;17.14;29.01
56600;BME280;51832;48.152;11.530;2023-03-04T15:11:25;95612.53;;;18.47;27.38
56600;BME280;51832;48.152;11.530;2023-03-04T15:16:51;95613.34;;;18.58;27.44
56600;BME280;51832;48.152;11.530;2023-03-04T15:21:48;95612.09;;;19.45;25.51
56600;BME280;51832;48.152;11.530;2023-03-04T15:26:49;95611.75;;;18.41;26.20
56600;BME280;51832;48.152;11.530;2023-03-04T15:31:49;95616.00;;;18.17;26.96
56600;BME280;51832;48.152;11.530;2023-03-04T15:36:51;95614.91;;;18.94;25.85
56600;BME280;51832;48.152;11.530;2023-03-04T15:41:52;95613.88;;;18.34;26.60
56600;BME280;51832;48.152;11.530;2023-03-04T15:46:54;95622.09;;;17.97;26.76
56600;BME280;51832;48.152;11.530;2023-03-04T15:51:55;95625.34;;;16.21;28.81
56600;BME280;51832;48.152;11.530;2023-03-04T15:56:55;95638.66;;;15.50;29.92
56600;BME280;51832;48.152;11.530;2023-03-04T16:01:57;95632.66;;;16.41;28.94
56600;BME280;51832;48.152;11.530;2023-03-04T16:06:57;95623.34;;;13.92;32.10
56600;BME280;51832;48.152;11.530;2023-03-04T16:12:00;95632.31;;;12.99;34.22
56600;BME280;51832;48.152;11.530;2023-03-04T16:17:01;95636.38;;;12.66;35.23
56600;BME280;51832;48.152;11.530;2023-03-04T16:22:01;95633.91;;;13.00;34.80
56600;BME280;51832;48.152;11.530;2023-03-04T16:27:02;95638.97;;;13.25;33.57
56600;BME280;51832;48.152;11.530;2023-03-04T16:32:02;95645.84;;;12.21;35.52
56600;BME280;51832;48.152;11.530;2023-03-04T16:37:12;95654.38;;;11.08;37.56
56600;BME280;51832;48.152;11.530;2023-03-04T16:42:15;95647.53;;;10.21;38.70
56600;BME280;51832;48.152;11.530;2023-03-04T16:47:18;95641.50;;;9.44;41.77
56600;BME280;51832;48.152;11.530;2023-03-04T16:52:25;95651.91;;;9.19;42.83
56600;BME280;51832;48.152;11.530;2023-03-04T16:57:26;95656.91;;;8.50;43.88
56600;BME280;51832;48.152;11.530;2023-03-04T17:02:28;95667.75;;;7.74;46.36
56600;BME280;51832;48.152;11.530;2023-03-04T17:07:28;95673.03;;;7.27;47.45
56600;BME280;51832;48.152;11.530;2023-03-04T17:12:29;95680.69;;;7.28;46.69
56600;BME280;51832;48.152;11.530;2023-03-04T17:17:30;95698.81;;;7.23;48.17
56600;BME280;51832;48.152;11.530;2023-03-04T17:22:31;95691.28;;;6.45;49.98
56600;BME280;51832;48.152;11.530;2023-03-04T17:27:32;95704.53;;;6.71;49.43
56600;BME280;51832;48.152;11.530;2023-03-04T17:32:32;95708.84;;;6.57;51.44
56600;BME280;51832;48.152;11.530;2023-03-04T17:37:33;95709.28;;;6.89;48.74
56600;BME280;51832;48.152;11.530;2023-03-04T17:42:34;95712.78;;;6.19;51.09
56600;BME280;51832;48.152;11.530;2023-03-04T17:47:35;95726.34;;;6.57;50.36
56600;BME280;51832;48.152;11.530;2023-03-04T17:52:36;95730.44;;;6.17;50.82
56600;BME280;51832;48.152;11.530;2023-03-04T17:57:37;95725.31;;;6.51;49.38
56600;BME280;51832;48.152;11.530;2023-03-04T18:02:38;95733.06;;;5.95;51.29
56600;BME280;51832;48.152;11.530;2023-03-04T18:07:38;95738.22;;;6.10;52.62
56600;BME280;51832;48.152;11.530;2023-03-04T18:12:39;95744.88;;;6.55;49.86
56600;BME280;51832;48.152;11.530;2023-03-04T18:17:39;95747.56;;;6.68;50.32
56600;BME280;51832;48.152;11.530;2023-03-04T18:22:41;95751.38;;;6.45;50.21
56600;BME280;51832;48.152;11.530;2023-03-04T18:27:42;95751.22;;;6.25;50.29
56600;BME280;51832;48.152;11.530;2023-03-04T18:32:43;95751.94;;;5.47;52.60
56600;BME280;51832;48.152;11.530;2023-03-04T18:37:44;95755.50;;;5.75;51.62
56600;BME280;51832;48.152;11.530;2023-03-04T18:42:45;95769.31;;;5.69;51.85
56600;BME280;51832;48.152;11.530;2023-03-04T18:47:48;95756.94;;;5.12;53.59
56600;BME280;51832;48.152;11.530;2023-03-04T18:52:49;95750.75;;;5.13;52.96
56600;BME280;51832;48.152;11.530;2023-03-04T18:57:54;95760.00;;;5.01;54.42
56600;BME280;51832;48.152;11.530;2023-03-04T19:03:03;95769.34;;;5.25;53.68
56600;BME280;51832;48.152;11.530;2023-03-04T19:08:05;95766.84;;;5.31;54.58
56600;BME280;51832;48.152;11.530;2023-03-04T19:13:06;95765.84;;;4.88;54.19
56600;BME280;51832;48.152;11.530;2023-03-04T19:18:06;95775.66;;;5.30;52.67
56600;BME280;51832;48.152;11.530;2023-03-04T19:23:07;95779.16;;;4.56;53.92
56600;BME280;51832;48.152;11.530;2023-03-04T19:28:09;95776.16;;;4.82;53.62
56600;BME280;51832;48.152;11.530;2023-03-04T19:33:10;95790.00;;;4.82;52.34
56600;BME280;51832;48.152;11.530;2023-03-04T19:38:10;95787.41;;;4.45;53.67
56600;BME280;51832;48.152;11.530;2023-03-04T19:43:12;95785.91;;;4.50;53.66
56600;BME280;51832;48.152;11.530;2023-03-04T19:48:13;95780.47;;;4.75;53.04
56600;BME280;51832;48.152;11.530;2023-03-04T19:53:15;95786.19;;;4.55;53.26
56600;BME280;51832;48.152;11.530;2023-03-04T19:58:18;95778.53;;;4.91;52.03
56600;BME280;51832;48.152;11.530;2023-03-04T20:03:19;95766.47;;;4.76;52.90
56600;BME280;51832;48.152;11.530;2023-03-04T20:08:20;95783.94;;;4.29;54.07
56600;BME280;51832;48.152;11.530;2023-03-04T20:13:20;95783.69;;;4.39;54.15
56600;BME280;51832;48.152;11.530;2023-03-04T20:18:21;95790.91;;;4.37;53.86
56600;BME280;51832;48.152;11.530;2023-03-04T20:23:21;95787.63;;;3.89;56.15
56600;BME280;51832;48.152;11.530;2023-03-04T20:28:22;95788.25;;;4.22;54.99
56600;BME280;51832;48.152;11.530;2023-03-04T20:33:23;95781.22;;;3.69;56.92
56600;BME280;51832;48.152;11.530;2023-03-04T20:38:24;95783.00;;;4.45;54.57
56600;BME280;51832;48.152;11.530;2023-03-04T20:43:25;95782.66;;;4.48;54.25
56600;BME280;51832;48.152;11.530;2023-03-04T20:48:27;95769.22;;;3.68;56.57
56600;BME280;51832;48.152;11.530;2023-03-04T20:53:28;95772.28;;;4.40;54.75
56600;BME280;51832;48.152;11.530;2023-03-04T20:58:28;95764.69;;;4.16;55.02
56600;BME280;51832;48.152;11.530;2023-03-04T21:03:28;95764.84;;;4.14;54.78
56600;BME280;51832;48.152;11.530;2023-03-04T21:08:29;95762.59;;;4.34;54.41
56600;BME280;51832;48.152;11.530;2023-03-04T21:13:29;95746.81;;;4.65;53.38
56600;BME280;51832;48.152;11.530;2023-03-04T21:18:30;95759.72;;;3.52;56.78
56600;BME280;51832;48.152;11.530;2023-03-04T21:23:30;95748.31;;;3.22;58.20
56600;BME280;51832;48.152;11.530;2023-03-04T21:28:31;95748.41;;;3.37;57.79
56600;BME280;51832;48.152;11.530;2023-03-04T21:33:33;95745.00;;;3.68;56.50
56600;BME280;51832;48.152;11.530;2023-03-04T21:38:35;95738.47;;;3.41;57.24
56600;BME280;51832;48.152;11.530;2023-03-04T21:43:36;95742.72;;;3.34;56.93
56600;BME280;51832;48.152;11.530;2023-03-04T21:48:36;95726.31;;;2.94;59.00
56600;BME280;51832;48.152;11.530;2023-03-04T21:53:37;95719.31;;;3.65;56.88
56600;BME280;51832;48.152;11.530;2023-03-04T21:58:38;95724.22;;;3.60;56.69
56600;BME280;51832;48.152;11.530;2023-03-04T22:03:41;95698.72;;;3.78;56.52
56600;BME280;51832;48.152;11.530;2023-03-04T22:08:41;95703.69;;;3.87;55.55
56600;BME280;51832;48.152;11.530;2023-03-04T22:13:42;95702.34;;;3.46;56.88
56600;BME280;51832;48.152;11.530;2023-03-04T22:18:42;95684.53;;;3.57;57.30
56600;BME280;51832;48.152;11.530;2023-03-04T22:23:43;95690.03;;;3.85;56.45
56600;BME280;51832;48.152;11.530;2023-03-04T22:28:44;95701.44;;;3.31;57.86
56600;BME280;51832;48.152;11.530;2023-03-04T22:33:45;95693.34;;;3.79;56.82
56600;BME280;51832;48.152;11.530;2023-03-04T22:38:45;95689.66;;;3.74;57.15
56600;BME280;51832;48.152;11.530;2023-03-04T22:43:46;95693.03;;;3.82;56.89
56600;BME280;51832;48.152;11.530;2023-03-04T22:48:48;95695.31;;;3.77;56.83
56600;BME280;51832;48.152;11.530;2023-03-04T22:53:49;95704.34;;;3.67;57.88
56600;BME280;51832;48.152;11.530;2023-03-04T22:58:51;95694.50;;;3.77;57.81
56600;BME280;51832;48.152;11.530;2023-03-04T23:03:51;95694.84;;;3.97;57.32
56600;BME280;51832;48.152;11.530;2023-03-04T23:08:52;95697.97;;;3.69;58.31
56600;BME280;51832;48.152;11.530;2023-03-04T23:13:53;95695.44;;;4.07;57.47
56600;BME280;51832;48.152;11.530;2023-03-04T23:18:54;95693.84;;;3.98;57.58
56600;BME280;51832;48.152;11.530;2023-03-04T23:23:55;95689.06;;;4.24;56.60
56600;BME280;51832;48.152;11.530;2023-03-04T23:28:55;95682.09;;;4.39;56.74
56600;BME280;51832;48.152;11.530;2023-03-04T23:33:56;95683.13;;;4.15;57.66
56600;BME280;51832;48.152;11.530;2023-03-04T23:38:58;95676.13;;;3.78;58.71
56600;BME280;51832;48.152;11.530;2023-03-04T23:43:59;95673.78;;;3.83;58.59
56600;BME280;51832;48.152;11.530;2023-03-04T23:49:00;95670.34;;;3.68;59.15
56600;BME280;51832;48.152;11.530;2023-03-04T23:54:00;95660.94;;;4.05;58.53
56600;BME280;51832;48.152;11.530;2023-03-04T23:59:01;95661.56;;;4.07;58.08
